KFIN

Flagler Executive Airport

Palm Coast, Florida, USA
METAR KFIN 181950Z 27004KT 7SM BKN030 26/19 A3018
Observed Flight Rules
Dec-18 @ 19:50 UTC (34 minutes ago) Marginal Visual Flight Rules
Wind Visibility Clouds
270° at 4 knots 7 miles
  • Broken at 3,000' AGL
Temperatures Readings
Current 26°C / 79°F
Dewpoint 19°C / 66°F
Humidity 65%
Altimeter 30.18" Hg
Pressure 1022 hPa
Elevation 10
METAR KFIN 181950Z 27004KT 7SM BKN030 26/19 A3018
Observed Flight Rules
Dec-18 @ 19:50 UTC
(34 minutes ago)
MVFR
Wind Visibility
270° at 4 knots 7 miles
Clouds
  • Broken at 3,000' AGL
Temperature Dewpoint
26°C / 79°F 19°C / 66°F
Humidity Altimeter Pressure
65% 30.18" Hg 1022 hPa